createdAt,value
2018-11-28T00:00:09.769Z,99664.90
2018-11-28T00:02:37.912Z,99662.39
2018-11-28T00:05:09.126Z,99669.38
2018-11-28T00:07:37.276Z,99670.84
2018-11-28T00:10:09.693Z,99666.73
2018-11-28T00:12:38.484Z,99665.80
2018-11-28T00:15:08.136Z,99663.48
2018-11-28T00:17:36.759Z,99659.99
2018-11-28T00:20:06.549Z,99657.71
2018-11-28T00:22:34.836Z,99656.47
2018-11-28T00:25:03.046Z,99648.50
2018-11-28T00:27:31.285Z,99649.81
2018-11-28T00:29:59.568Z,99650.05
2018-11-28T00:32:27.870Z,99651.53
2018-11-28T00:34:56.150Z,99652.95
2018-11-28T00:37:24.473Z,99652.16
2018-11-28T00:39:52.626Z,99652.30
2018-11-28T00:42:21.035Z,99654.24
2018-11-28T00:44:49.248Z,99651.84
2018-11-28T00:47:17.487Z,99651.73
2018-11-28T00:49:45.705Z,99650.47
2018-11-28T00:52:13.912Z,99644.27
2018-11-28T00:54:42.142Z,99649.34
2018-11-28T00:57:10.307Z,99659.44
2018-11-28T00:59:38.519Z,99650.97
2018-11-28T01:02:06.778Z,99656.27
2018-11-28T01:04:35.015Z,99655.02
2018-11-28T01:07:03.220Z,99659.09
2018-11-28T01:09:31.470Z,99655.09
2018-11-28T01:11:59.664Z,99655.23
2018-11-28T01:14:28.014Z,99653.33
2018-11-28T01:16:56.650Z,99657.66
2018-11-28T01:19:24.991Z,99653.03
2018-11-28T01:21:53.253Z,99649.05
2018-11-28T01:24:21.525Z,99649.89
2018-11-28T01:26:49.721Z,99647.19
2018-11-28T01:29:17.884Z,99648.29
2018-11-28T01:31:46.054Z,99645.47
2018-11-28T01:34:14.236Z,99642.69
2018-11-28T01:36:42.500Z,99642.34
2018-11-28T01:39:10.657Z,99642.37
2018-11-28T01:41:38.809Z,99648.37
2018-11-28T01:44:07.211Z,99651.12
2018-11-28T01:46:35.416Z,99655.75
2018-11-28T01:49:03.566Z,99650.73
2018-11-28T01:51:31.751Z,99650.59
2018-11-28T01:53:59.977Z,99655.25
2018-11-28T01:56:28.112Z,99649.91
2018-11-28T01:58:56.269Z,99648.14
2018-11-28T02:01:24.401Z,99648.30
2018-11-28T02:03:52.702Z,99644.19
2018-11-28T02:06:20.922Z,99644.45
2018-11-28T02:08:49.064Z,99640.73
2018-11-28T02:11:17.201Z,99639.67
2018-11-28T02:13:45.471Z,99632.63
2018-11-28T02:16:13.677Z,99636.92
2018-11-28T02:18:41.819Z,99632.29
2018-11-28T02:21:09.976Z,99633.20
2018-11-28T02:23:38.209Z,99626.84
2018-11-28T02:26:06.382Z,99622.22
2018-11-28T02:28:34.536Z,99625.78
2018-11-28T02:31:02.769Z,99624.20
2018-11-28T02:33:30.926Z,99626.84
2018-11-28T02:35:59.066Z,99626.31
2018-11-28T02:38:27.245Z,99624.78
2018-11-28T02:40:55.551Z,99622.35
2018-11-28T02:43:23.738Z,99616.17
2018-11-28T02:46:03.200Z,99616.67
2018-11-28T02:48:31.399Z,99619.45
2018-11-28T02:50:59.701Z,99615.91
2018-11-28T02:53:27.848Z,99619.19
2018-11-28T02:55:56.179Z,99616.97
2018-11-28T02:58:24.303Z,99620.66
2018-11-28T03:00:52.529Z,99616.30
2018-11-28T03:03:21.379Z,99615.81
2018-11-28T03:05:48.926Z,99619.78
2018-11-28T03:08:17.096Z,99613.19
2018-11-28T03:10:45.382Z,99617.41
2018-11-28T03:13:13.559Z,99620.84
2018-11-28T03:15:44.057Z,99610.91
2018-11-28T03:18:12.309Z,99614.98
2018-11-28T03:20:40.522Z,99619.32
2018-11-28T03:23:08.745Z,99613.74
2018-11-28T03:25:36.980Z,99618.42
2018-11-28T03:28:05.161Z,99611.70
2018-11-28T03:30:33.362Z,99612.59
2018-11-28T03:33:01.497Z,99611.05
2018-11-28T03:35:29.767Z,99611.28
2018-11-28T03:37:57.947Z,99614.26
2018-11-28T03:40:26.478Z,99617.67
2018-11-28T03:42:54.658Z,99625.66
2018-11-28T03:45:22.875Z,99616.48
2018-11-28T03:47:51.009Z,99612.94
2018-11-28T03:50:19.157Z,99615.58
2018-11-28T03:52:47.318Z,99617.16
2018-11-28T03:55:16.237Z,99618.09
2018-11-28T03:57:45.590Z,99620.85
2018-11-28T04:00:14.875Z,99613.78
2018-11-28T04:02:43.072Z,99619.72
2018-11-28T04:05:12.471Z,99611.91
2018-11-28T04:07:40.745Z,99614.84
2018-11-28T04:10:10.734Z,99618.02
2018-11-28T04:12:39.406Z,99610.63
2018-11-28T04:15:12.431Z,99609.38
2018-11-28T04:17:40.602Z,99616.64
2018-11-28T04:20:10.623Z,99622.97
2018-11-28T04:22:38.764Z,99623.61
2018-11-28T04:25:08.079Z,99620.91
2018-11-28T04:27:36.234Z,99622.47
2018-11-28T04:30:05.275Z,99610.38
2018-11-28T04:32:33.420Z,99614.67
2018-11-28T04:35:01.628Z,99618.92
2018-11-28T04:37:29.885Z,99618.59
2018-11-28T04:39:58.044Z,99621.90
2018-11-28T04:42:26.221Z,99618.47
2018-11-28T04:44:54.458Z,99616.89
2018-11-28T04:47:22.647Z,99621.94
2018-11-28T04:49:50.847Z,99619.19
2018-11-28T04:52:22.363Z,99622.99
2018-11-28T04:54:50.569Z,99623.97
2018-11-28T04:57:18.699Z,99623.90
2018-11-28T04:59:46.916Z,99621.22
2018-11-28T05:02:15.084Z,99625.22
2018-11-28T05:04:43.258Z,99627.40
2018-11-28T05:07:30.781Z,99633.72
2018-11-28T05:09:59.462Z,99624.83
2018-11-28T05:12:27.697Z,99630.26
2018-11-28T05:14:55.979Z,99627.55
2018-11-28T05:17:25.041Z,99629.39
2018-11-28T05:19:53.192Z,99630.06
2018-11-28T05:22:21.413Z,99621.57
2018-11-28T05:24:50.026Z,99623.61
2018-11-28T05:27:18.215Z,99626.08
2018-11-28T05:29:46.416Z,99624.28
2018-11-28T05:32:14.585Z,99614.34
2018-11-28T05:34:42.854Z,99619.78
2018-11-28T05:37:11.055Z,99616.91
2018-11-28T05:39:39.302Z,99615.39
2018-11-28T05:42:07.450Z,99617.12
2018-11-28T05:44:35.743Z,99620.66
2018-11-28T05:47:04.018Z,99624.61
2018-11-28T05:49:32.305Z,99628.24
2018-11-28T05:52:00.583Z,99633.58
2018-11-28T05:54:28.846Z,99631.84
2018-11-28T05:56:57.124Z,99630.39
2018-11-28T05:59:27.567Z,99637.86
2018-11-28T06:01:53.710Z,99637.58
2018-11-28T06:04:21.852Z,99637.95
2018-11-28T06:06:50.068Z,99642.86
2018-11-28T06:09:18.226Z,99635.94
2018-11-28T06:11:47.074Z,99632.44
2018-11-28T06:14:16.027Z,99631.17
2018-11-28T06:16:44.266Z,99633.87
2018-11-28T06:19:13.190Z,99638.50
2018-11-28T06:21:41.427Z,99630.08
2018-11-28T06:24:09.678Z,99632.36
2018-11-28T06:26:37.837Z,99629.28
2018-11-28T06:29:06.654Z,99624.64
2018-11-28T06:31:34.828Z,99632.94
2018-11-28T06:34:03.451Z,99633.04
2018-11-28T06:36:31.682Z,99642.08
2018-11-28T06:38:59.850Z,99635.80
2018-11-28T06:41:29.091Z,99634.48
2018-11-28T06:43:57.280Z,99633.11
2018-11-28T06:46:25.419Z,99636.73
2018-11-28T06:48:53.575Z,99637.47
2018-11-28T06:51:21.803Z,99638.27
2018-11-28T06:53:50.022Z,99639.09
2018-11-28T06:56:18.214Z,99637.91
2018-11-28T06:58:46.537Z,99634.55
2018-11-28T07:01:14.796Z,99636.15
2018-11-28T07:03:42.952Z,99644.04
2018-11-28T07:06:11.129Z,99646.61
2018-11-28T07:08:39.276Z,99641.44
2018-11-28T07:11:07.452Z,99646.95
2018-11-28T07:13:35.676Z,99651.05
2018-11-28T07:16:03.847Z,99656.02
2018-11-28T07:18:43.480Z,99670.05
2018-11-28T07:21:11.912Z,99668.25
2018-11-28T07:23:40.084Z,99676.13
2018-11-28T07:26:08.247Z,99673.16
2018-11-28T07:28:36.466Z,99675.89
2018-11-28T07:31:04.700Z,99673.33
2018-11-28T07:33:33.466Z,99678.31
2018-11-28T07:36:01.618Z,99683.63
2018-11-28T07:38:29.832Z,99688.32
2018-11-28T07:40:57.984Z,99684.88
2018-11-28T07:43:26.186Z,99682.67
2018-11-28T07:45:54.350Z,99684.08
2018-11-28T07:48:22.578Z,99687.30
2018-11-28T07:50:50.812Z,99686.11
2018-11-28T07:53:19.334Z,99696.84
2018-11-28T07:55:47.483Z,99695.63
2018-11-28T07:58:15.725Z,99706.09
2018-11-28T08:00:45.094Z,99703.42
2018-11-28T08:03:13.243Z,99698.16
2018-11-28T08:05:41.483Z,99702.35
2018-11-28T08:08:10.688Z,99701.73
2018-11-28T08:10:38.923Z,99710.75
2018-11-28T08:13:07.745Z,99711.16
2018-11-28T08:15:35.953Z,99706.19
2018-11-28T08:18:04.093Z,99706.38
2018-11-28T08:20:32.239Z,99699.53
2018-11-28T08:23:00.717Z,99697.59
2018-11-28T08:25:29.007Z,99708.98
2018-11-28T08:27:57.374Z,99702.30
2018-11-28T08:30:26.454Z,99701.22
2018-11-28T08:32:55.500Z,99704.47
2018-11-28T08:35:23.865Z,99696.98
2018-11-28T08:37:52.114Z,99699.78
2018-11-28T08:40:22.784Z,99697.66
2018-11-28T08:42:51.185Z,99695.89
2018-11-28T08:45:20.234Z,99697.08
2018-11-28T08:47:49.499Z,99700.19
2018-11-28T08:50:19.892Z,99706.46
2018-11-28T08:52:48.544Z,99706.50
2018-11-28T08:55:16.752Z,99701.28
2018-11-28T08:57:45.016Z,99703.05
2018-11-28T09:00:15.133Z,99704.75
2018-11-28T09:02:43.705Z,99705.40
2018-11-28T09:05:13.056Z,99706.37
2018-11-28T09:07:41.239Z,99706.65
2018-11-28T09:10:13.611Z,99700.42
2018-11-28T09:12:41.889Z,99698.28
2018-11-28T09:15:14.121Z,99697.84
2018-11-28T09:17:42.359Z,99703.41
2018-11-28T09:20:11.824Z,99706.63
2018-11-28T09:22:39.994Z,99711.77
2018-11-28T09:25:10.687Z,99711.45
2018-11-28T09:27:38.877Z,99712.64
2018-11-28T09:30:10.501Z,99714.76
2018-11-28T09:32:38.691Z,99711.42
2018-11-28T09:35:08.338Z,99711.22
2018-11-28T09:37:36.520Z,99706.78
2018-11-28T09:40:10.004Z,99709.33
2018-11-28T09:42:42.315Z,99709.95
2018-11-28T09:45:12.068Z,99707.64
2018-11-28T09:47:40.352Z,99711.67
2018-11-28T09:50:10.769Z,99712.98
2018-11-28T09:52:39.034Z,99709.48
2018-11-28T09:55:09.112Z,99709.78
2018-11-28T09:57:37.316Z,99699.38
2018-11-28T10:00:08.861Z,99698.13
2018-11-28T10:02:37.069Z,99699.97
2018-11-28T10:05:06.542Z,99694.88
2018-11-28T10:07:34.795Z,99701.42
2018-11-28T10:10:03.131Z,99699.52
2018-11-28T10:12:31.390Z,99693.10
2018-11-28T10:14:59.576Z,99688.77
2018-11-28T10:17:27.751Z,99678.77
2018-11-28T10:19:56.006Z,99686.80
2018-11-28T10:22:24.172Z,99683.40
2018-11-28T10:24:52.358Z,99684.85
2018-11-28T10:27:20.582Z,99686.45
2018-11-28T10:29:48.821Z,99682.78
2018-11-28T10:32:17.002Z,99682.58
2018-11-28T10:34:45.289Z,99679.36
2018-11-28T10:37:14.294Z,99678.18
2018-11-28T10:39:42.472Z,99675.13
2018-11-28T10:42:10.807Z,99675.65
2018-11-28T10:44:39.081Z,99669.20
2018-11-28T10:47:07.349Z,99665.67
2018-11-28T10:49:35.644Z,99673.56
2018-11-28T10:52:03.900Z,99674.88
2018-11-28T10:54:32.166Z,99672.59
2018-11-28T10:57:00.405Z,99670.34
2018-11-28T10:59:28.617Z,99672.98
2018-11-28T11:02:02.129Z,99665.33
2018-11-28T11:04:35.790Z,99668.26
2018-11-28T11:07:09.253Z,99663.09
2018-11-28T11:09:42.705Z,99657.45
2018-11-28T11:12:16.106Z,99659.98
2018-11-28T11:14:46.939Z,99655.73
2018-11-28T11:17:15.229Z,99652.44
2018-11-28T11:19:43.507Z,99655.54
2018-11-28T11:22:11.692Z,99658.10
2018-11-28T11:24:39.977Z,99655.56
2018-11-28T11:27:09.566Z,99656.63
2018-11-28T11:29:37.737Z,99666.15
2018-11-28T11:32:05.978Z,99660.23
2018-11-28T11:34:34.151Z,99660.88
2018-11-28T11:37:02.345Z,99662.33
2018-11-28T11:39:31.189Z,99665.42
2018-11-28T11:41:59.349Z,99658.64
2018-11-28T11:44:27.589Z,99658.00
2018-11-28T11:46:55.785Z,99661.02
2018-11-28T11:49:24.038Z,99660.08
2018-11-28T11:51:52.316Z,99662.64
2018-11-28T11:54:20.510Z,99658.50
2018-11-28T11:56:48.758Z,99652.20
2018-11-28T11:59:16.929Z,99657.70
2018-11-28T12:01:45.159Z,99659.14
2018-11-28T12:04:13.409Z,99660.12
2018-11-28T12:06:41.657Z,99651.41
2018-11-28T12:09:10.230Z,99651.84
2018-11-28T12:11:38.409Z,99647.50
2018-11-28T12:14:06.810Z,99648.59
2018-11-28T12:16:35.100Z,99645.25
2018-11-28T12:19:03.364Z,99639.55
2018-11-28T12:21:31.535Z,99637.56
2018-11-28T12:23:59.766Z,99630.90
2018-11-28T12:26:27.968Z,99624.06
2018-11-28T12:28:56.138Z,99625.70
2018-11-28T12:31:24.422Z,99620.92
2018-11-28T12:33:52.590Z,99625.31
2018-11-28T12:36:20.766Z,99623.55
2018-11-28T12:38:49.005Z,99624.75
2018-11-28T12:41:17.278Z,99617.48
2018-11-28T12:43:45.390Z,99626.45
2018-11-28T12:46:13.646Z,99624.89
2018-11-28T12:48:41.842Z,99624.87
2018-11-28T12:51:10.101Z,99623.29
2018-11-28T12:53:38.424Z,99626.53
2018-11-28T12:56:06.657Z,99628.39
2018-11-28T12:58:34.942Z,99633.59
2018-11-28T13:01:03.882Z,99625.38
2018-11-28T13:03:32.105Z,99623.72
2018-11-28T13:06:00.385Z,99618.47
2018-11-28T13:08:28.580Z,99614.42
2018-11-28T13:10:56.824Z,99621.89
2018-11-28T13:13:24.995Z,99618.56
2018-11-28T13:15:53.212Z,99621.11
2018-11-28T13:18:21.449Z,99622.65
2018-11-28T13:20:49.720Z,99621.89
2018-11-28T13:23:17.936Z,99617.00
2018-11-28T13:25:46.167Z,99618.16
2018-11-28T13:28:14.548Z,99626.25
2018-11-28T13:30:42.756Z,99632.03
2018-11-28T13:33:10.994Z,99620.91
2018-11-28T13:35:39.184Z,99621.54
2018-11-28T13:38:11.493Z,99618.73
2018-11-28T13:40:39.829Z,99619.47
2018-11-28T13:43:08.102Z,99622.13
2018-11-28T13:45:38.746Z,99615.20
2018-11-28T13:48:07.004Z,99611.84
2018-11-28T13:50:35.199Z,99607.34
2018-11-28T13:53:06.568Z,99602.06
2018-11-28T13:55:38.363Z,99602.00
2018-11-28T13:58:05.388Z,99592.50
2018-11-28T14:00:33.627Z,99600.02
2018-11-28T14:03:01.888Z,99596.45
2018-11-28T14:05:30.182Z,99605.80
2018-11-28T14:07:58.444Z,99603.52
2018-11-28T14:10:26.625Z,99604.24
2018-11-28T14:12:55.961Z,99610.24
2018-11-28T14:15:24.321Z,99603.88
2018-11-28T14:18:01.085Z,99602.34
2018-11-28T14:20:29.300Z,99601.65
2018-11-28T14:22:57.513Z,99608.89
2018-11-28T14:25:25.896Z,99604.28
2018-11-28T14:27:53.939Z,99598.83
2018-11-28T14:30:23.331Z,99595.72
2018-11-28T14:32:52.106Z,99597.36
2018-11-28T14:35:20.834Z,99587.44
2018-11-28T14:37:49.182Z,99590.86
2018-11-28T14:40:22.397Z,99594.41
2018-11-28T14:42:52.728Z,99594.80
2018-11-28T14:45:20.987Z,99601.39
2018-11-28T14:47:50.178Z,99608.12
2018-11-28T14:50:28.310Z,99608.08
2018-11-28T14:52:58.680Z,99606.27
2018-11-28T14:55:33.133Z,99608.39
2018-11-28T14:58:01.432Z,99604.98
2018-11-28T15:00:30.442Z,99601.45
2018-11-28T15:03:11.764Z,99615.61
2018-11-28T15:07:49.473Z,99614.06
2018-11-28T15:10:18.201Z,99621.78
2018-11-28T15:12:46.375Z,99615.08
2018-11-28T15:15:15.110Z,99620.65
2018-11-28T15:17:43.277Z,99616.06
2018-11-28T15:20:11.486Z,99617.27
2018-11-28T15:22:39.680Z,99612.72
2018-11-28T15:25:09.498Z,99609.81
2018-11-28T15:27:37.682Z,99618.33
2018-11-28T15:30:07.303Z,99616.30
2018-11-28T15:32:35.546Z,99621.41
2018-11-28T15:35:03.870Z,99622.80
2018-11-28T15:37:32.089Z,99623.00
2018-11-28T15:40:00.286Z,99617.08
2018-11-28T15:42:28.593Z,99619.23
2018-11-28T15:44:56.773Z,99615.77
2018-11-28T15:47:25.012Z,99623.14
2018-11-28T15:49:53.201Z,99619.64
2018-11-28T15:52:21.452Z,99609.22
2018-11-28T15:54:49.622Z,99613.32
2018-11-28T15:57:18.255Z,99611.21
2018-11-28T15:59:46.430Z,99619.30
2018-11-28T16:02:14.666Z,99614.48
2018-11-28T16:04:42.852Z,99603.78
2018-11-28T16:07:11.100Z,99607.28
2018-11-28T16:09:44.729Z,99610.33
2018-11-28T16:12:13.704Z,99613.61
2018-11-28T16:14:41.873Z,99618.95
2018-11-28T16:17:10.089Z,99608.84
2018-11-28T16:19:38.286Z,99613.53
2018-11-28T16:22:06.492Z,99612.13
2018-11-28T16:24:34.791Z,99617.11
2018-11-28T16:27:03.048Z,99625.66
2018-11-28T16:29:31.425Z,99629.92
2018-11-28T16:31:59.693Z,99629.13
2018-11-28T16:34:27.869Z,99630.45
2018-11-28T16:36:56.062Z,99622.41
2018-11-28T16:39:24.249Z,99618.92
2018-11-28T16:41:52.588Z,99619.71
2018-11-28T16:44:20.789Z,99615.86
2018-11-28T16:46:49.044Z,99619.02
2018-11-28T16:49:17.221Z,99621.89
2018-11-28T16:51:46.383Z,99627.06
2018-11-28T16:54:14.605Z,99629.74
2018-11-28T16:56:42.881Z,99627.30
2018-11-28T16:59:11.050Z,99634.50
2018-11-28T17:01:39.351Z,99639.52
2018-11-28T17:04:08.460Z,99640.50
2018-11-28T17:06:36.678Z,99643.89
2018-11-28T17:09:07.558Z,99647.05
2018-11-28T17:11:36.452Z,99645.16
2018-11-28T17:14:04.903Z,99646.75
2018-11-28T17:16:33.124Z,99648.81
2018-11-28T17:19:02.385Z,99647.27
2018-11-28T17:21:30.665Z,99649.53
2018-11-28T17:23:58.846Z,99651.11
2018-11-28T17:26:27.223Z,99646.02
2018-11-28T17:28:55.466Z,99641.02
2018-11-28T17:31:24.202Z,99641.80
2018-11-28T17:33:53.936Z,99648.48
2018-11-28T17:36:22.165Z,99651.19
2018-11-28T17:38:50.384Z,99656.92
2018-11-28T17:41:18.729Z,99656.92
2018-11-28T17:43:46.926Z,99657.41
2018-11-28T17:46:15.142Z,99665.84
2018-11-28T17:48:43.342Z,99653.86
2018-11-28T17:51:11.591Z,99646.37
2018-11-28T17:53:39.762Z,99623.21
2018-11-28T17:56:07.960Z,99620.70
2018-11-28T17:58:36.129Z,99635.05
2018-11-28T18:01:04.304Z,99638.88
2018-11-28T18:03:33.457Z,99636.24
2018-11-28T18:06:01.753Z,99635.83
2018-11-28T18:08:29.932Z,99634.13
2018-11-28T18:11:10.193Z,99640.16
2018-11-28T18:13:39.621Z,99637.85
2018-11-28T18:16:07.142Z,99635.30
2018-11-28T18:18:35.327Z,99634.20
2018-11-28T18:21:03.497Z,99644.69
2018-11-28T18:23:34.244Z,99649.33
2018-11-28T18:26:06.861Z,99651.77
2018-11-28T18:28:36.867Z,99651.09
2018-11-28T18:31:06.976Z,99653.89
2018-11-28T18:33:36.068Z,99653.61
2018-11-28T18:36:04.298Z,99652.34
2018-11-28T18:38:32.685Z,99661.27
2018-11-28T18:41:01.408Z,99660.11
2018-11-28T18:43:29.565Z,99642.02
2018-11-28T18:45:58.172Z,99652.17
2018-11-28T18:48:26.096Z,99658.75
2018-11-28T18:50:54.277Z,99646.75
2018-11-28T18:53:22.994Z,99639.78
2018-11-28T18:55:51.407Z,99635.94
2018-11-28T18:58:19.713Z,99638.72
2018-11-28T19:00:48.025Z,99638.38
2018-11-28T19:03:17.956Z,99645.58
2018-11-28T19:05:47.602Z,99632.32
2018-11-28T19:08:17.390Z,99633.48
2018-11-28T19:10:47.668Z,99619.77
2018-11-28T19:13:18.183Z,99622.11
2018-11-28T19:15:45.762Z,99626.28
2018-11-28T19:18:14.018Z,99621.84
2018-11-28T19:20:42.256Z,99630.08
2018-11-28T19:23:10.549Z,99620.24
2018-11-28T19:25:38.823Z,99617.53
2018-11-28T19:28:07.030Z,99622.61
2018-11-28T19:30:37.326Z,99620.30
2018-11-28T19:33:07.130Z,99619.77
2018-11-28T19:35:35.400Z,99612.56
2018-11-28T19:38:03.585Z,99613.11
2018-11-28T19:40:34.826Z,99605.25
2018-11-28T19:43:03.039Z,99604.89
2018-11-28T19:45:31.165Z,99609.70
2018-11-28T19:47:59.374Z,99601.84
2018-11-28T19:50:29.140Z,99596.19
2018-11-28T19:52:57.333Z,99600.67
2018-11-28T19:55:25.538Z,99594.38
2018-11-28T19:57:53.806Z,99602.09
2018-11-28T20:00:22.054Z,99604.95
2018-11-28T20:02:50.239Z,99606.52
2018-11-28T20:05:18.422Z,99611.19
2018-11-28T20:07:49.740Z,99606.23
2018-11-28T20:10:20.089Z,99604.84
2018-11-28T20:12:48.377Z,99602.61
2018-11-28T20:15:21.829Z,99604.64
2018-11-28T20:17:50.426Z,99599.45
2018-11-28T20:20:18.713Z,99607.89
2018-11-28T20:22:46.898Z,99611.61
2018-11-28T20:25:16.071Z,99615.56
2018-11-28T20:27:45.593Z,99605.78
2018-11-28T20:30:17.429Z,99603.84
2018-11-28T20:32:45.679Z,99598.59
2018-11-28T20:35:13.893Z,99598.36
2018-11-28T20:37:42.514Z,99601.32
2018-11-28T20:40:13.843Z,99604.05
2018-11-28T20:42:44.363Z,99604.66
2018-11-28T20:45:12.717Z,99601.32
2018-11-28T20:47:41.007Z,99604.13
2018-11-28T20:50:12.565Z,99594.29
2018-11-28T20:52:41.650Z,99578.87
2018-11-28T20:55:10.623Z,99572.11
2018-11-28T20:57:41.792Z,99568.48
2018-11-28T21:00:27.510Z,99567.95
2018-11-28T21:02:55.752Z,99563.57
2018-11-28T21:05:24.022Z,99563.49
2018-11-28T21:07:52.266Z,99561.43
2018-11-28T21:10:25.939Z,99567.08
2018-11-28T21:12:54.132Z,99570.34
2018-11-28T21:15:22.302Z,99567.25
2018-11-28T21:17:50.630Z,99567.78
2018-11-28T21:20:21.194Z,99572.27
2018-11-28T21:22:51.676Z,99562.95
2018-11-28T21:25:19.832Z,99576.48
2018-11-28T21:27:48.100Z,99582.37
2018-11-28T21:30:17.747Z,99589.47
2018-11-28T21:33:17.481Z,99591.45
2018-11-28T21:35:53.173Z,99593.92
2018-11-28T21:38:23.719Z,99595.53
2018-11-28T21:40:52.024Z,99594.92
2018-11-28T21:43:20.919Z,99598.66
2018-11-28T21:45:50.138Z,99596.91
2018-11-28T21:48:18.479Z,99592.41
2018-11-28T21:50:46.673Z,99592.41
2018-11-28T21:53:14.919Z,99602.83
2018-11-28T21:55:43.209Z,99598.70
2018-11-28T21:58:11.510Z,99598.08
2018-11-28T22:00:39.752Z,99593.04
2018-11-28T22:03:08.526Z,99582.63
2018-11-28T22:05:36.965Z,99592.47
2018-11-28T22:08:05.317Z,99590.36
2018-11-28T22:10:33.657Z,99590.37
2018-11-28T22:13:02.937Z,99587.48
2018-11-28T22:15:31.157Z,99586.41
2018-11-28T22:17:59.533Z,99583.36
2018-11-28T22:20:27.890Z,99593.80
2018-11-28T22:22:56.085Z,99591.91
2018-11-28T22:25:26.448Z,99584.77
2018-11-28T22:27:54.856Z,99588.72
2018-11-28T22:30:25.265Z,99596.19
2018-11-28T22:32:53.446Z,99596.19
2018-11-28T22:35:21.628Z,99590.91
2018-11-28T22:37:49.799Z,99590.66
2018-11-28T22:40:24.019Z,99579.19
2018-11-28T22:42:52.273Z,99580.11
2018-11-28T22:45:28.676Z,99583.46
2018-11-28T22:47:56.906Z,99580.98
2018-11-28T22:50:25.126Z,99571.91
2018-11-28T22:52:53.401Z,99581.61
2018-11-28T22:55:21.626Z,99578.12
2018-11-28T22:57:50.125Z,99580.13
2018-11-28T23:00:28.028Z,99578.64
2018-11-28T23:03:03.683Z,99580.98
2018-11-28T23:05:38.875Z,99580.44
2018-11-28T23:08:08.449Z,99574.70
2018-11-28T23:10:37.420Z,99579.44
2018-11-28T23:13:06.329Z,99593.12
2018-11-28T23:15:34.647Z,99590.72
2018-11-28T23:18:02.845Z,99592.02
2018-11-28T23:20:31.152Z,99586.59
2018-11-28T23:22:59.341Z,99585.09
2018-11-28T23:25:27.513Z,99577.34
2018-11-28T23:27:55.795Z,99570.97
2018-11-28T23:30:23.962Z,99571.44
2018-11-28T23:32:53.689Z,99562.98
2018-11-28T23:35:22.252Z,99565.39
2018-11-28T23:37:50.627Z,99572.69
2018-11-28T23:40:20.811Z,99580.29
2018-11-28T23:42:49.240Z,99582.47
2018-11-28T23:45:19.555Z,99579.75
2018-11-28T23:47:48.126Z,99562.12
2018-11-28T23:50:18.635Z,99550.86
2018-11-28T23:52:48.067Z,99552.88
2018-11-28T23:55:26.930Z,99561.27
2018-11-28T23:57:55.310Z,99564.12
